Prior Lake, MN (55372)

4:57 PM CDT on July 30, 2016 (GMT -0500)
Maple Glen | | Change Station

Elev 268 ft 44.69 °N, 93.45 °W | Updated 1 minute ago

Overcast
Overcast
76.1 °F
Feels Like 78 °F
N
0.7
Wind Variable Wind from West
Gusts 3.1 mph

Today
High -- | Low -- °F
--% Chance of Precip.
Yesterday
High -- | Low -- °F
Precip. -- in
Pressure 29.97 in
Visibility 10.0 miles
Clouds Few 3900 ft
Scattered Clouds 4800 ft
Overcast 7500 ft
Heat Index 78 °F
Dew Point 66 °F
Humidity 72%
Rainfall 0.00 in
Snow Depth Not available.
5:58 AM 8:41 PM
Waning Crescent, 11% visible
METAR KFCM 302153Z 16009KT 10SM FEW039 SCT048 OVC075 26/18 A2998 RMK AO2 LTG DSNT SE SLP147 T02560178
Pressure 29.97 in
Visibility 10.0 miles
Clouds Few 3900 ft
Scattered Clouds 4800 ft
Overcast 7500 ft
Heat Index 78 °F
Dew Point 66 °F
Humidity 72%
Rainfall 0.00 in
Snow Depth Not available.
5:58 AM 8:41 PM
Waning Crescent, 11% visible
METAR KFCM 302153Z 16009KT 10SM FEW039 SCT048 OVC075 26/18 A2998 RMK AO2 LTG DSNT SE SLP147 T02560178

10-Day Weather Forecast

Almanac

Astronomy

Jul. 30, 2016 Rise Set
Actual Time
Civil Twilight
Nautical Twilight
Astronomical Twilight
Moon
Length of Visible Light
Length of Day
Tomorrow will be .
, % of the Moon is Illuminated

Today's Extremes

State Highs State Lows

Community

WunderPhotos

Upload Photos

1,928,657 photos uploaded!

WunderBlog® & News

Nearby

Air Quality

  Air Quality AQ Index Pollutant
Not available.

Snow Depth

Station Depth Elevation

Earthquake Activity

City Distance Mag. Time & Date
Minimum magnitude displayed is 2.5.

Coastal Water Temperatures

Place Temperature

Stations

Nearby Weather Stations

Station Location Temp. Windchill Dew Point Humidity Wind Precip. Elev Updated Type
                   

Watches & Warnings

There are currently no watches in effect.